createdAt,value
2018-05-31T00:00:52.985Z,10.90
2018-05-31T00:03:19.762Z,10.43
2018-05-31T00:05:46.601Z,12.23
2018-05-31T00:08:13.396Z,11.40
2018-05-31T00:10:40.220Z,12.13
2018-05-31T00:13:07.008Z,10.53
2018-05-31T00:15:33.831Z,10.90
2018-05-31T00:18:00.582Z,9.93
2018-05-31T00:20:28.113Z,9.33
2018-05-31T00:22:54.882Z,10.37
2018-05-31T00:25:22.431Z,11.33
2018-05-31T00:27:49.208Z,10.50
2018-05-31T00:30:16.391Z,9.27
2018-05-31T00:32:43.539Z,9.00
2018-05-31T00:35:10.309Z,10.00
2018-05-31T00:37:37.816Z,8.53
2018-05-31T00:40:04.573Z,9.90
2018-05-31T00:42:31.353Z,8.30
2018-05-31T00:44:58.141Z,8.80
2018-05-31T00:47:24.940Z,7.10
2018-05-31T00:49:51.691Z,8.20
2018-05-31T00:52:19.229Z,7.97
2018-05-31T00:54:45.993Z,9.23
2018-05-31T00:57:13.743Z,9.10
2018-05-31T00:59:40.500Z,8.27
2018-05-31T01:02:07.288Z,8.90
2018-05-31T01:04:34.076Z,9.93
2018-05-31T01:07:01.326Z,9.13
2018-05-31T01:09:28.129Z,9.07
2018-05-31T01:11:55.032Z,9.20
2018-05-31T01:14:21.784Z,10.20
2018-05-31T01:16:48.525Z,9.17
2018-05-31T01:19:15.327Z,9.40
2018-05-31T01:21:42.117Z,9.70
2018-05-31T01:24:08.905Z,9.53
2018-05-31T01:26:35.673Z,9.93
2018-05-31T01:29:03.196Z,10.70
2018-05-31T01:31:29.953Z,9.70
2018-05-31T01:33:56.787Z,10.13
2018-05-31T01:36:23.536Z,10.00
2018-05-31T01:38:50.471Z,11.73
2018-05-31T01:41:17.518Z,10.67
2018-05-31T01:43:44.331Z,9.90
2018-05-31T01:46:11.102Z,11.10
2018-05-31T01:48:37.904Z,11.00
2018-05-31T01:51:04.672Z,11.37
2018-05-31T01:53:31.499Z,9.90
2018-05-31T01:55:58.273Z,11.07
2018-05-31T01:58:25.083Z,11.10
2018-05-31T02:00:51.843Z,10.00
2018-05-31T02:03:18.656Z,11.33
2018-05-31T02:05:45.596Z,11.43
2018-05-31T02:08:12.995Z,10.73
2018-05-31T02:10:39.815Z,11.20
2018-05-31T02:13:06.592Z,12.47
2018-05-31T02:15:33.975Z,11.83
2018-05-31T02:18:00.770Z,10.70
2018-05-31T02:20:28.023Z,10.70
2018-05-31T02:22:54.808Z,12.07
2018-05-31T02:25:21.640Z,11.80
2018-05-31T02:27:48.432Z,12.33
2018-05-31T02:30:15.550Z,13.63
2018-05-31T02:32:42.341Z,13.60
2018-05-31T02:35:09.110Z,13.97
2018-05-31T02:37:35.903Z,14.17
2018-05-31T02:40:02.743Z,13.83
2018-05-31T02:42:29.505Z,16.10
2018-05-31T02:44:56.280Z,14.47
2018-05-31T02:47:23.148Z,14.83
2018-05-31T02:49:49.940Z,16.40
2018-05-31T02:52:16.723Z,14.57
2018-05-31T02:54:43.599Z,15.70
2018-05-31T02:57:10.384Z,16.77
2018-05-31T02:59:37.163Z,17.30
2018-05-31T03:02:03.981Z,16.67
2018-05-31T03:04:30.726Z,16.60
2018-05-31T03:06:57.532Z,16.37
2018-05-31T03:09:24.350Z,18.30
2018-05-31T03:11:51.121Z,18.60
2018-05-31T03:14:17.900Z,17.80
2018-05-31T03:16:44.720Z,17.30
2018-05-31T03:19:11.504Z,16.57
2018-05-31T03:21:38.290Z,17.10
2018-05-31T03:24:05.089Z,16.10
2018-05-31T03:26:31.856Z,16.97
2018-05-31T03:28:58.659Z,17.60
2018-05-31T03:31:25.488Z,17.87
2018-05-31T03:33:52.276Z,18.10
2018-05-31T03:36:19.051Z,16.00
2018-05-31T03:38:45.866Z,15.77
2018-05-31T03:41:12.671Z,16.00
2018-05-31T03:43:39.504Z,17.37
2018-05-31T03:46:06.296Z,16.00
2018-05-31T03:48:33.089Z,15.27
2018-05-31T03:50:59.865Z,15.93
2018-05-31T03:53:26.683Z,15.00
2018-05-31T03:55:53.452Z,15.93
2018-05-31T03:58:20.221Z,15.50
2018-05-31T04:00:47.089Z,17.17
2018-05-31T04:03:13.876Z,16.07
2018-05-31T04:05:40.684Z,15.57
2018-05-31T04:08:07.492Z,15.37
2018-05-31T04:10:34.254Z,15.03
2018-05-31T04:13:01.068Z,16.87
2018-05-31T04:15:27.867Z,16.10
2018-05-31T04:17:54.664Z,16.07
2018-05-31T04:20:21.445Z,16.00
2018-05-31T04:22:48.265Z,14.73
2018-05-31T04:25:15.543Z,16.00
2018-05-31T04:27:42.312Z,15.00
2018-05-31T04:30:09.124Z,15.03
2018-05-31T04:32:35.889Z,15.03
2018-05-31T04:35:03.424Z,13.23
2018-05-31T04:37:30.225Z,13.50
2018-05-31T04:39:57.011Z,12.63
2018-05-31T04:42:23.842Z,13.90
2018-05-31T04:44:51.190Z,12.40
2018-05-31T04:47:18.218Z,12.47
2018-05-31T04:49:45.003Z,11.57
2018-05-31T04:52:11.826Z,12.20
2018-05-31T04:54:38.608Z,12.83
2018-05-31T04:57:05.360Z,12.37
2018-05-31T04:59:32.195Z,13.20
2018-05-31T05:01:58.944Z,13.10
2018-05-31T05:04:25.739Z,12.00
2018-05-31T05:06:52.591Z,13.10
2018-05-31T05:09:19.392Z,12.17
2018-05-31T05:11:46.169Z,11.97
2018-05-31T05:14:12.995Z,11.43
2018-05-31T05:16:39.774Z,13.30
2018-05-31T05:19:06.533Z,13.80
2018-05-31T05:21:33.356Z,12.30
2018-05-31T05:24:00.171Z,11.60
2018-05-31T05:26:27.319Z,11.50
2018-05-31T05:28:54.107Z,11.07
2018-05-31T05:31:20.885Z,11.63
2018-05-31T05:33:47.692Z,10.67
2018-05-31T05:36:14.557Z,12.60
2018-05-31T05:38:41.425Z,11.60
2018-05-31T05:41:08.188Z,12.10
2018-05-31T05:43:35.038Z,11.60
2018-05-31T05:46:01.806Z,10.60
2018-05-31T05:48:28.568Z,11.70
2018-05-31T05:50:55.381Z,11.50
2018-05-31T05:53:22.132Z,9.17
2018-05-31T05:55:48.893Z,11.60
2018-05-31T05:58:15.700Z,10.93
2018-05-31T06:00:42.471Z,11.10
2018-05-31T06:03:09.300Z,11.67
2018-05-31T06:05:36.140Z,10.90
2018-05-31T06:08:02.905Z,11.07
2018-05-31T06:10:29.737Z,11.03
2018-05-31T06:12:56.569Z,10.70
2018-05-31T06:15:23.346Z,10.77
2018-05-31T06:17:50.217Z,9.13
2018-05-31T06:20:17.015Z,10.50
2018-05-31T06:22:43.804Z,10.10
2018-05-31T06:25:10.577Z,9.77
2018-05-31T06:27:37.357Z,10.50
2018-05-31T06:30:04.149Z,8.67
2018-05-31T06:32:30.913Z,8.87
2018-05-31T06:34:57.719Z,9.50
2018-05-31T06:37:24.476Z,9.97
2018-05-31T06:39:51.319Z,10.00
2018-05-31T06:42:18.117Z,9.40
2018-05-31T06:44:44.890Z,9.07
2018-05-31T06:47:11.652Z,9.70
2018-05-31T06:49:38.499Z,10.70
2018-05-31T06:52:05.287Z,12.10
2018-05-31T06:54:32.223Z,11.87
2018-05-31T06:57:00.063Z,10.60
2018-05-31T06:59:26.835Z,10.60
2018-05-31T07:01:53.590Z,10.80
2018-05-31T07:04:20.385Z,10.17
2018-05-31T07:06:47.243Z,9.60
2018-05-31T07:09:14.000Z,10.97
2018-05-31T07:11:40.789Z,10.23
2018-05-31T07:14:07.545Z,11.00
2018-05-31T07:16:34.303Z,9.40
2018-05-31T07:19:01.109Z,10.30
2018-05-31T07:21:27.872Z,10.00
2018-05-31T07:23:54.649Z,10.40
2018-05-31T07:26:21.448Z,9.43
2018-05-31T07:28:48.198Z,10.67
2018-05-31T07:31:14.968Z,8.83
2018-05-31T07:33:41.776Z,9.90
2018-05-31T07:36:08.535Z,9.50
2018-05-31T07:38:35.287Z,9.33
2018-05-31T07:41:02.132Z,11.10
2018-05-31T07:43:28.903Z,11.10
2018-05-31T07:45:55.675Z,12.40
2018-05-31T07:48:22.456Z,9.57
2018-05-31T07:50:49.213Z,10.50
2018-05-31T07:53:15.992Z,11.13
2018-05-31T07:55:42.799Z,9.30
2018-05-31T07:58:09.602Z,9.87
2018-05-31T08:00:36.387Z,11.10
2018-05-31T08:03:03.199Z,11.63
2018-05-31T08:05:30.021Z,10.20
2018-05-31T08:07:56.812Z,10.23
2018-05-31T08:10:23.600Z,11.40
2018-05-31T08:12:50.391Z,10.67
2018-05-31T08:15:17.144Z,10.30
2018-05-31T08:17:43.929Z,9.73
2018-05-31T08:20:10.703Z,10.43
2018-05-31T08:22:37.475Z,10.10
2018-05-31T08:25:04.322Z,10.10
2018-05-31T08:27:31.075Z,11.00
2018-05-31T08:29:58.556Z,10.70
2018-05-31T08:32:25.337Z,11.03
2018-05-31T08:34:52.074Z,9.77
2018-05-31T08:37:18.828Z,11.17
2018-05-31T08:39:45.643Z,11.50
2018-05-31T08:42:12.413Z,12.00
2018-05-31T08:44:39.860Z,11.40
2018-05-31T08:47:06.668Z,10.53
2018-05-31T08:49:33.443Z,9.60
2018-05-31T08:52:00.200Z,12.00
2018-05-31T08:54:27.015Z,10.40
2018-05-31T08:56:53.756Z,10.53
2018-05-31T08:59:20.528Z,11.30
2018-05-31T09:01:47.333Z,9.50
2018-05-31T09:04:14.086Z,10.07
2018-05-31T09:06:40.835Z,10.90
2018-05-31T09:09:07.649Z,10.67
2018-05-31T09:11:34.431Z,11.27
2018-05-31T09:14:01.199Z,11.57
2018-05-31T09:16:28.016Z,10.93
2018-05-31T09:18:54.871Z,10.70
2018-05-31T09:21:21.641Z,10.47
2018-05-31T09:23:48.451Z,10.50
2018-05-31T09:26:15.232Z,11.80
2018-05-31T09:28:41.985Z,10.20
2018-05-31T09:31:08.792Z,11.10
2018-05-31T09:33:36.156Z,11.27
2018-05-31T09:36:02.935Z,11.67
2018-05-31T09:38:29.746Z,12.03
2018-05-31T09:40:56.536Z,10.40
2018-05-31T09:43:23.316Z,11.60
2018-05-31T09:45:50.125Z,11.47
2018-05-31T09:48:16.878Z,11.03
2018-05-31T09:50:43.668Z,12.37
2018-05-31T09:53:10.461Z,11.07
2018-05-31T09:55:37.226Z,11.60
2018-05-31T09:58:03.987Z,10.00
2018-05-31T10:00:36.327Z,12.30
2018-05-31T10:03:03.129Z,12.77
2018-05-31T10:05:30.099Z,12.00
2018-05-31T10:07:56.909Z,11.23
2018-05-31T10:10:23.680Z,13.47
2018-05-31T10:12:50.460Z,14.77
2018-05-31T10:15:17.262Z,12.93
2018-05-31T10:17:44.031Z,11.90
2018-05-31T10:20:10.783Z,13.53
2018-05-31T10:22:37.820Z,11.20
2018-05-31T10:25:04.605Z,11.63
2018-05-31T10:27:31.383Z,10.17
2018-05-31T10:29:58.201Z,13.30
2018-05-31T10:32:24.982Z,10.87
2018-05-31T10:34:51.730Z,12.83
2018-05-31T10:37:18.521Z,10.60
2018-05-31T10:39:45.307Z,11.30
2018-05-31T10:42:12.057Z,11.20
2018-05-31T10:44:38.833Z,9.30
2018-05-31T10:47:05.668Z,9.23
2018-05-31T10:49:32.417Z,9.60
2018-05-31T10:51:59.217Z,9.67
2018-05-31T10:54:25.956Z,9.60
2018-05-31T10:56:53.515Z,10.20
2018-05-31T10:59:20.350Z,10.10
2018-05-31T11:01:47.144Z,9.17
2018-05-31T11:04:13.915Z,9.73
2018-05-31T11:06:40.936Z,9.90
2018-05-31T11:09:07.683Z,8.73
2018-05-31T11:11:34.465Z,8.97
2018-05-31T11:14:01.267Z,8.80
2018-05-31T11:16:28.072Z,7.63
2018-05-31T11:18:55.314Z,8.27
2018-05-31T11:21:22.117Z,7.10
2018-05-31T11:23:49.214Z,6.67
2018-05-31T11:26:16.968Z,6.80
2018-05-31T11:28:43.757Z,8.10
2018-05-31T11:31:10.504Z,7.23
2018-05-31T11:33:37.267Z,6.40
2018-05-31T11:36:04.055Z,7.63
2018-05-31T11:38:30.812Z,6.53
2018-05-31T11:40:57.578Z,5.70
2018-05-31T11:43:24.400Z,7.30
2018-05-31T11:45:51.147Z,6.03
2018-05-31T11:48:17.888Z,6.07
2018-05-31T11:50:44.687Z,5.93
2018-05-31T11:53:11.474Z,6.60
2018-05-31T11:55:38.213Z,6.00
2018-05-31T11:58:05.040Z,6.57
2018-05-31T12:00:31.843Z,6.50
2018-05-31T12:02:58.593Z,5.60
2018-05-31T12:05:25.387Z,6.10
2018-05-31T12:07:52.129Z,6.80
2018-05-31T12:10:18.869Z,6.60
2018-05-31T12:12:45.672Z,6.30
2018-05-31T12:15:12.428Z,6.63
2018-05-31T12:17:39.236Z,5.60
2018-05-31T12:20:06.029Z,6.10
2018-05-31T12:22:32.784Z,5.20
2018-05-31T12:24:59.564Z,5.70
2018-05-31T12:27:26.366Z,5.90
2018-05-31T12:29:53.141Z,5.17
2018-05-31T12:32:20.099Z,6.10
2018-05-31T12:34:46.907Z,5.70
2018-05-31T12:37:13.669Z,5.17
2018-05-31T12:39:40.469Z,5.80
2018-05-31T12:42:07.296Z,5.73
2018-05-31T12:44:34.076Z,4.40
2018-05-31T12:47:00.847Z,5.10
2018-05-31T12:49:27.638Z,5.30
2018-05-31T12:51:54.377Z,4.40
2018-05-31T12:54:21.167Z,4.80
2018-05-31T12:56:47.940Z,4.90
2018-05-31T12:59:14.685Z,5.10
2018-05-31T13:01:41.451Z,4.40
2018-05-31T13:04:08.257Z,5.20
2018-05-31T13:06:35.024Z,4.90
2018-05-31T13:09:02.522Z,4.47
2018-05-31T13:11:29.328Z,4.80
2018-05-31T13:13:56.096Z,5.47
2018-05-31T13:16:22.859Z,4.87
2018-05-31T13:18:49.659Z,4.80
2018-05-31T13:21:16.405Z,5.20
2018-05-31T13:23:43.152Z,5.20
2018-05-31T13:26:09.939Z,4.23
2018-05-31T13:28:36.720Z,4.70
2018-05-31T13:31:03.872Z,4.50
2018-05-31T13:33:31.369Z,4.20
2018-05-31T13:35:58.121Z,3.57
2018-05-31T13:38:24.868Z,4.33
2018-05-31T13:40:51.681Z,4.33
2018-05-31T13:43:18.444Z,4.83
2018-05-31T13:45:45.561Z,3.60
2018-05-31T13:48:12.360Z,3.90
2018-05-31T13:50:39.132Z,4.80
2018-05-31T13:53:05.910Z,3.57
2018-05-31T13:55:32.724Z,4.33
2018-05-31T13:57:59.465Z,4.13
2018-05-31T14:00:26.216Z,4.87
2018-05-31T14:02:52.988Z,4.87
2018-05-31T14:05:20.486Z,4.00
2018-05-31T14:07:47.317Z,5.03
2018-05-31T14:10:14.270Z,4.37
2018-05-31T14:12:41.040Z,4.13
2018-05-31T14:15:07.777Z,4.00
2018-05-31T14:17:35.087Z,4.10
2018-05-31T14:20:01.862Z,4.87
2018-05-31T14:22:28.645Z,4.40
2018-05-31T14:24:55.442Z,4.50
2018-05-31T14:27:22.774Z,4.33
2018-05-31T14:29:49.539Z,3.70
2018-05-31T14:32:16.515Z,4.30
2018-05-31T14:34:43.285Z,3.50
2018-05-31T14:37:10.017Z,5.03
2018-05-31T14:39:36.816Z,4.27
2018-05-31T14:42:03.556Z,3.77
2018-05-31T14:44:30.336Z,3.63
2018-05-31T14:46:57.113Z,3.90
2018-05-31T14:49:23.888Z,3.43
2018-05-31T14:51:50.671Z,3.23
2018-05-31T14:54:17.472Z,3.70
2018-05-31T14:56:44.241Z,4.30
2018-05-31T14:59:11.012Z,3.20
2018-05-31T15:01:37.793Z,2.97
2018-05-31T15:04:04.569Z,3.27
2018-05-31T15:06:31.352Z,2.97
2018-05-31T15:08:59.283Z,4.70
2018-05-31T15:11:26.029Z,3.30
2018-05-31T15:13:52.796Z,3.40
2018-05-31T15:16:19.590Z,3.93
2018-05-31T15:18:46.344Z,4.63
2018-05-31T15:21:13.097Z,3.20
2018-05-31T15:23:39.872Z,4.73
2018-05-31T15:26:06.977Z,3.70
2018-05-31T15:28:33.720Z,2.90
2018-05-31T15:31:00.514Z,4.80
2018-05-31T15:33:27.273Z,2.93
2018-05-31T15:35:54.029Z,4.07
2018-05-31T15:38:20.809Z,3.97
2018-05-31T15:40:47.559Z,3.47
2018-05-31T15:43:14.332Z,3.50
2018-05-31T15:45:41.109Z,3.30
2018-05-31T15:48:07.889Z,3.40
2018-05-31T15:50:34.837Z,4.07
2018-05-31T15:53:01.668Z,3.30
2018-05-31T15:55:28.417Z,4.20
2018-05-31T15:57:55.184Z,2.90
2018-05-31T16:00:22.644Z,3.40
2018-05-31T16:02:49.755Z,3.57
2018-05-31T16:05:16.564Z,3.70
2018-05-31T16:07:43.341Z,3.13
2018-05-31T16:10:10.106Z,3.50
2018-05-31T16:12:36.881Z,3.40
2018-05-31T16:15:03.697Z,4.80
2018-05-31T16:17:30.460Z,4.20
2018-05-31T16:19:57.239Z,4.10
2018-05-31T16:22:24.050Z,3.40
2018-05-31T16:24:50.822Z,2.80
2018-05-31T16:27:17.615Z,4.03
2018-05-31T16:29:44.388Z,3.00
2018-05-31T16:32:11.132Z,2.93
2018-05-31T16:34:37.892Z,3.73
2018-05-31T16:37:04.696Z,3.17
2018-05-31T16:39:31.441Z,3.10
2018-05-31T16:41:59.047Z,3.60
2018-05-31T16:44:25.849Z,3.50
2018-05-31T16:46:52.599Z,3.63
2018-05-31T16:49:19.366Z,3.60
2018-05-31T16:51:46.176Z,3.80
2018-05-31T16:54:12.934Z,3.17
2018-05-31T16:56:39.713Z,3.93
2018-05-31T16:59:06.511Z,2.90
2018-05-31T17:01:33.301Z,2.97
2018-05-31T17:04:00.083Z,3.20
2018-05-31T17:06:26.889Z,3.73
2018-05-31T17:08:53.652Z,3.20
2018-05-31T17:11:20.397Z,3.37
2018-05-31T17:13:47.176Z,3.00
2018-05-31T17:16:13.917Z,2.93
2018-05-31T17:18:40.674Z,3.63
2018-05-31T17:21:07.463Z,3.23
2018-05-31T17:23:34.240Z,3.03
2018-05-31T17:26:01.026Z,3.17
2018-05-31T17:28:27.797Z,4.37
2018-05-31T17:30:54.543Z,3.70
2018-05-31T17:33:21.303Z,4.07
2018-05-31T17:35:48.096Z,2.90
2018-05-31T17:38:14.864Z,2.20
2018-05-31T17:40:41.628Z,2.77
2018-05-31T17:43:08.406Z,3.40
2018-05-31T17:45:35.171Z,2.60
2018-05-31T17:48:01.956Z,3.13
2018-05-31T17:50:28.786Z,2.10
2018-05-31T17:52:55.556Z,3.27
2018-05-31T17:55:22.390Z,2.30
2018-05-31T17:57:49.182Z,2.50
2018-05-31T18:00:15.970Z,2.70
2018-05-31T18:02:42.741Z,2.03
2018-05-31T18:05:09.561Z,2.17
2018-05-31T18:07:36.315Z,2.97
2018-05-31T18:10:03.129Z,2.70
2018-05-31T18:12:29.913Z,2.67
2018-05-31T18:14:56.649Z,2.83
2018-05-31T18:17:23.416Z,3.10
2018-05-31T18:19:50.233Z,2.87
2018-05-31T18:22:17.008Z,3.67
2018-05-31T18:24:43.758Z,2.50
2018-05-31T18:27:10.568Z,2.53
2018-05-31T18:29:37.350Z,3.10
2018-05-31T18:32:04.114Z,2.90
2018-05-31T18:34:30.920Z,2.37
2018-05-31T18:36:57.675Z,2.60
2018-05-31T18:39:24.415Z,3.20
2018-05-31T18:41:51.231Z,2.03
2018-05-31T18:44:17.981Z,2.53
2018-05-31T18:46:44.742Z,2.77
2018-05-31T18:49:11.543Z,2.90
2018-05-31T18:51:38.349Z,3.93
2018-05-31T18:54:05.136Z,2.50
2018-05-31T18:56:31.958Z,2.70
2018-05-31T18:58:58.723Z,2.43
2018-05-31T19:01:25.529Z,3.23
2018-05-31T19:03:52.303Z,3.37
2018-05-31T19:06:19.055Z,2.60
2018-05-31T19:08:45.806Z,2.43
2018-05-31T19:11:12.617Z,3.07
2018-05-31T19:13:45.208Z,2.60
2018-05-31T19:16:12.025Z,2.70
2018-05-31T19:18:44.333Z,2.73
2018-05-31T19:21:11.573Z,2.37
2018-05-31T19:23:38.371Z,2.93
2018-05-31T19:26:05.159Z,2.13
2018-05-31T19:28:31.962Z,2.37
2018-05-31T19:31:04.454Z,2.87
2018-05-31T19:33:31.255Z,2.33
2018-05-31T19:36:03.734Z,2.47
2018-05-31T19:38:30.549Z,1.90
2018-05-31T19:40:57.412Z,2.00
2018-05-31T19:43:30.168Z,2.37
2018-05-31T19:45:56.961Z,1.90
2018-05-31T19:48:23.696Z,2.10
2018-05-31T19:50:50.521Z,2.97
2018-05-31T19:53:22.955Z,2.67
2018-05-31T19:55:49.700Z,1.97
2018-05-31T19:58:22.236Z,3.00
2018-05-31T20:00:54.574Z,2.20
2018-05-31T20:03:27.237Z,2.30
2018-05-31T20:05:54.030Z,2.00
2018-05-31T20:08:20.808Z,2.37
2018-05-31T20:10:47.679Z,3.03
2018-05-31T20:13:14.473Z,3.13
2018-05-31T20:15:41.247Z,2.60
2018-05-31T20:18:08.034Z,2.00
2018-05-31T20:20:34.818Z,2.30
2018-05-31T20:23:01.636Z,2.37
2018-05-31T20:25:28.426Z,3.20
2018-05-31T20:27:55.181Z,2.50
2018-05-31T20:30:21.944Z,2.70
2018-05-31T20:32:48.776Z,2.40
2018-05-31T20:35:15.554Z,2.40
2018-05-31T20:37:42.319Z,2.67
2018-05-31T20:40:09.097Z,2.10
2018-05-31T20:42:35.860Z,1.90
2018-05-31T20:45:02.637Z,2.20
2018-05-31T20:47:29.418Z,2.77
2018-05-31T20:49:56.199Z,2.20
2018-05-31T20:52:22.964Z,2.20
2018-05-31T20:54:49.767Z,1.70
2018-05-31T20:57:16.526Z,2.40
2018-05-31T20:59:43.304Z,2.47
2018-05-31T21:02:10.116Z,2.20
2018-05-31T21:04:36.888Z,2.13
2018-05-31T21:07:03.641Z,1.90
2018-05-31T21:09:30.452Z,2.00
2018-05-31T21:11:57.304Z,2.63
2018-05-31T21:14:24.752Z,2.10
2018-05-31T21:16:51.556Z,1.87
2018-05-31T21:19:18.330Z,2.00
2018-05-31T21:21:45.104Z,2.00
2018-05-31T21:24:11.891Z,1.80
2018-05-31T21:26:38.660Z,1.83
2018-05-31T21:29:05.423Z,2.00
2018-05-31T21:31:32.221Z,2.07
2018-05-31T21:33:58.988Z,1.73
2018-05-31T21:36:25.723Z,2.27
2018-05-31T21:38:52.522Z,2.70
2018-05-31T21:41:19.274Z,1.80
2018-05-31T21:43:46.033Z,1.80
2018-05-31T21:46:12.826Z,2.30
2018-05-31T21:48:39.579Z,1.70
2018-05-31T21:51:06.329Z,2.43
2018-05-31T21:53:33.101Z,2.23
2018-05-31T21:55:59.893Z,2.40
2018-05-31T21:58:26.656Z,1.87
2018-05-31T22:00:56.442Z,2.30
2018-05-31T22:03:23.184Z,3.03
2018-05-31T22:05:49.925Z,2.07
2018-05-31T22:08:16.744Z,3.00
2018-05-31T22:10:43.486Z,2.30
2018-05-31T22:13:10.254Z,2.30
2018-05-31T22:15:37.220Z,2.97
2018-05-31T22:18:03.989Z,2.20
2018-05-31T22:20:30.756Z,2.07
2018-05-31T22:22:57.529Z,2.47
2018-05-31T22:25:24.270Z,2.97
2018-05-31T22:27:51.101Z,2.43
2018-05-31T22:30:17.911Z,2.30
2018-05-31T22:32:44.681Z,2.40
2018-05-31T22:35:11.433Z,2.07
2018-05-31T22:37:38.229Z,3.03
2018-05-31T22:40:04.987Z,2.30
2018-05-31T22:42:31.725Z,3.30
2018-05-31T22:44:58.527Z,2.60
2018-05-31T22:47:25.304Z,2.77
2018-05-31T22:49:52.066Z,2.90
2018-05-31T22:52:18.857Z,2.73
2018-05-31T22:54:45.627Z,2.40
2018-05-31T22:57:13.057Z,2.73
2018-05-31T22:59:39.855Z,2.73
2018-05-31T23:02:06.605Z,3.37
2018-05-31T23:04:33.340Z,3.07
2018-05-31T23:07:00.143Z,2.80
2018-05-31T23:09:26.893Z,3.17
2018-05-31T23:11:53.644Z,2.80
2018-05-31T23:14:20.458Z,2.67
2018-05-31T23:16:47.223Z,3.40
2018-05-31T23:19:13.964Z,2.40
2018-05-31T23:21:40.737Z,3.03
2018-05-31T23:24:07.498Z,2.60
2018-05-31T23:26:34.269Z,2.93
2018-05-31T23:29:01.045Z,3.47
2018-05-31T23:31:27.804Z,2.97
2018-05-31T23:33:54.562Z,3.13
2018-05-31T23:36:21.354Z,4.20
2018-05-31T23:38:48.117Z,2.90
2018-05-31T23:41:14.921Z,2.90
2018-05-31T23:43:41.699Z,3.47
2018-05-31T23:46:08.491Z,2.97
2018-05-31T23:48:35.247Z,3.00
2018-05-31T23:51:02.025Z,3.17
2018-05-31T23:53:28.763Z,2.63
2018-05-31T23:55:55.525Z,3.70
2018-05-31T23:58:22.336Z,2.93
